createdAt,value
2017-08-01T00:02:04.980Z,3.83
2017-08-01T00:04:32.748Z,4.40
2017-08-01T00:07:00.379Z,4.43
2017-08-01T00:09:28.139Z,4.10
2017-08-01T00:11:55.886Z,3.77
2017-08-01T00:14:23.531Z,4.63
2017-08-01T00:16:51.277Z,3.73
2017-08-01T00:19:19.025Z,4.47
2017-08-01T00:21:46.670Z,3.63
2017-08-01T00:24:14.315Z,3.83
2017-08-01T00:26:42.002Z,4.47
2017-08-01T00:29:09.706Z,4.50
2017-08-01T00:31:37.342Z,4.37
2017-08-01T00:34:05.017Z,4.17
2017-08-01T00:36:32.658Z,4.03
2017-08-01T00:39:00.699Z,5.80
2017-08-01T00:41:28.384Z,4.20
2017-08-01T00:43:56.019Z,5.43
2017-08-01T00:46:24.144Z,3.73
2017-08-01T00:48:51.906Z,4.53
2017-08-01T00:51:19.740Z,4.53
2017-08-01T00:53:47.512Z,4.50
2017-08-01T00:56:15.644Z,3.60
2017-08-01T00:58:43.299Z,3.57
2017-08-01T01:01:10.930Z,4.33
2017-08-01T01:03:38.680Z,3.70
2017-08-01T01:06:06.314Z,3.80
2017-08-01T01:08:33.951Z,4.57
2017-08-01T01:11:01.653Z,4.03
2017-08-01T01:13:29.291Z,4.70
2017-08-01T01:15:57.419Z,4.43
2017-08-01T01:18:25.166Z,3.90
2017-08-01T01:20:52.913Z,5.40
2017-08-01T01:23:20.549Z,4.67
2017-08-01T01:25:48.227Z,4.77
2017-08-01T01:28:16.258Z,4.80
2017-08-01T01:30:44.004Z,5.57
2017-08-01T01:33:11.853Z,4.70
2017-08-01T01:35:39.602Z,4.63
2017-08-01T01:38:07.313Z,4.53
2017-08-01T01:40:35.301Z,4.30
2017-08-01T01:43:03.050Z,4.17
2017-08-01T01:45:30.738Z,3.57
2017-08-01T01:47:58.545Z,4.03
2017-08-01T01:50:26.291Z,3.83
2017-08-01T01:52:53.973Z,5.57
2017-08-01T01:55:22.070Z,4.87
2017-08-01T01:57:49.737Z,4.17
2017-08-01T02:00:17.485Z,4.77
2017-08-01T02:02:45.182Z,4.13
2017-08-01T02:05:12.821Z,4.60
2017-08-01T02:07:40.470Z,4.77
2017-08-01T02:10:08.267Z,4.23
2017-08-01T02:12:35.961Z,4.37
2017-08-01T02:15:03.653Z,4.97
2017-08-01T02:17:31.461Z,4.87
2017-08-01T02:19:59.114Z,4.27
2017-08-01T02:22:26.830Z,5.17
2017-08-01T02:24:54.929Z,5.33
2017-08-01T02:27:22.585Z,4.80
2017-08-01T02:29:50.248Z,4.70
2017-08-01T02:32:17.970Z,4.27
2017-08-01T02:34:45.742Z,5.83
2017-08-01T02:37:13.401Z,5.53
2017-08-01T02:39:41.154Z,4.57
2017-08-01T02:42:09.180Z,5.53
2017-08-01T02:44:36.816Z,4.97
2017-08-01T02:47:04.498Z,5.27
2017-08-01T02:49:32.525Z,4.47
2017-08-01T02:52:00.180Z,4.60
2017-08-01T02:54:27.994Z,3.80
2017-08-01T02:56:55.622Z,4.63
2017-08-01T02:59:23.317Z,4.80
2017-08-01T03:01:51.065Z,4.83
2017-08-01T03:04:19.119Z,5.30
2017-08-01T03:06:46.760Z,4.23
2017-08-01T03:09:14.511Z,4.73
2017-08-01T03:11:42.141Z,5.20
2017-08-01T03:14:10.006Z,4.33
2017-08-01T03:16:37.754Z,4.73
2017-08-01T03:19:05.399Z,4.83
2017-08-01T03:21:33.021Z,4.40
2017-08-01T03:24:00.706Z,4.87
2017-08-01T03:26:28.335Z,4.97
2017-08-01T03:28:55.977Z,4.43
2017-08-01T03:31:23.726Z,4.70
2017-08-01T03:33:51.370Z,4.87
2017-08-01T03:36:19.017Z,4.60
2017-08-01T03:38:46.708Z,4.87
2017-08-01T03:41:14.408Z,4.37
2017-08-01T03:43:42.049Z,4.47
2017-08-01T03:46:09.802Z,3.50
2017-08-01T03:48:37.450Z,4.93
2017-08-01T03:51:05.145Z,4.47
2017-08-01T03:53:32.842Z,4.47
2017-08-01T03:56:00.586Z,5.30
2017-08-01T03:58:28.231Z,3.40
2017-08-01T04:00:55.930Z,4.50
2017-08-01T04:03:23.570Z,5.30
2017-08-01T04:05:51.214Z,5.00
2017-08-01T04:08:18.923Z,6.13
2017-08-01T04:10:46.567Z,5.03
2017-08-01T04:13:14.220Z,4.97
2017-08-01T04:15:41.907Z,4.60
2017-08-01T04:18:09.554Z,5.10
2017-08-01T04:20:37.238Z,5.33
2017-08-01T04:23:04.935Z,5.60
2017-08-01T04:25:32.581Z,4.53
2017-08-01T04:28:00.225Z,4.97
2017-08-01T04:30:27.931Z,5.17
2017-08-01T04:32:55.668Z,5.20
2017-08-01T04:35:23.306Z,4.80
2017-08-01T04:37:51.006Z,4.90
2017-08-01T04:40:18.705Z,5.27
2017-08-01T04:42:46.453Z,5.43
2017-08-01T04:45:14.162Z,4.80
2017-08-01T04:47:41.791Z,5.40
2017-08-01T04:50:09.426Z,6.23
2017-08-01T04:52:37.505Z,4.70
2017-08-01T04:55:05.295Z,6.40
2017-08-01T04:57:32.967Z,6.30
2017-08-01T05:00:01.065Z,7.33
2017-08-01T05:02:28.701Z,5.70
2017-08-01T05:04:56.486Z,4.50
2017-08-01T05:07:24.190Z,6.30
2017-08-01T05:09:51.882Z,6.10
2017-08-01T05:12:19.534Z,5.57
2017-08-01T05:14:47.271Z,6.03
2017-08-01T05:17:15.017Z,5.50
2017-08-01T05:19:42.664Z,6.80
2017-08-01T05:22:10.411Z,5.67
2017-08-01T05:24:38.054Z,5.27
2017-08-01T05:27:05.774Z,5.70
2017-08-01T05:29:33.477Z,6.90
2017-08-01T05:32:01.514Z,5.73
2017-08-01T05:34:29.299Z,5.50
2017-08-01T05:36:57.099Z,5.57
2017-08-01T05:39:24.729Z,6.27
2017-08-01T05:41:52.388Z,5.70
2017-08-01T05:44:20.073Z,5.93
2017-08-01T05:46:48.102Z,5.80
2017-08-01T05:49:15.769Z,5.57
2017-08-01T05:51:43.841Z,5.93
2017-08-01T05:54:11.583Z,5.60
2017-08-01T05:56:39.218Z,5.80
2017-08-01T05:59:08.358Z,5.07
2017-08-01T06:01:35.998Z,6.13
2017-08-01T06:04:03.650Z,4.40
2017-08-01T06:06:31.893Z,5.43
2017-08-01T06:08:59.527Z,6.27
2017-08-01T06:11:27.162Z,5.90
2017-08-01T06:13:54.907Z,5.00
2017-08-01T06:16:22.599Z,5.60
2017-08-01T06:18:50.338Z,5.40
2017-08-01T06:21:18.085Z,5.70
2017-08-01T06:23:45.834Z,5.00
2017-08-01T06:26:13.581Z,5.13
2017-08-01T06:28:41.328Z,5.57
2017-08-01T06:31:08.967Z,5.80
2017-08-01T06:33:36.606Z,5.37
2017-08-01T06:36:04.285Z,4.97
2017-08-01T06:38:32.011Z,6.43
2017-08-01T06:40:59.641Z,5.00
2017-08-01T06:43:27.330Z,6.07
2017-08-01T06:45:55.429Z,5.73
2017-08-01T06:48:23.205Z,5.80
2017-08-01T06:50:50.889Z,5.50
2017-08-01T06:53:19.007Z,4.77
2017-08-01T06:55:46.651Z,5.73
2017-08-01T06:58:14.330Z,6.20
2017-08-01T07:00:42.042Z,5.60
2017-08-01T07:03:09.675Z,5.77
2017-08-01T07:05:37.406Z,5.57
2017-08-01T07:08:05.048Z,5.60
2017-08-01T07:10:32.690Z,5.93
2017-08-01T07:13:00.411Z,5.90
2017-08-01T07:15:28.325Z,6.20
2017-08-01T07:17:55.968Z,6.07
2017-08-01T07:20:23.716Z,5.90
2017-08-01T07:22:51.359Z,5.90
2017-08-01T07:25:18.989Z,6.00
2017-08-01T07:27:46.751Z,6.03
2017-08-01T07:30:14.386Z,4.80
2017-08-01T07:32:42.040Z,5.07
2017-08-01T07:35:09.788Z,5.03
2017-08-01T07:37:37.411Z,5.23
2017-08-01T07:40:05.081Z,5.60
2017-08-01T07:42:32.775Z,5.90
2017-08-01T07:45:00.472Z,4.90
2017-08-01T07:47:28.109Z,6.50
2017-08-01T07:49:55.898Z,5.90
2017-08-01T07:52:23.929Z,5.80
2017-08-01T07:54:51.665Z,6.57
2017-08-01T07:57:19.347Z,6.03
2017-08-01T07:59:47.468Z,5.80
2017-08-01T08:02:15.214Z,5.90
2017-08-01T08:04:42.960Z,5.80
2017-08-01T08:07:10.604Z,6.50
2017-08-01T08:09:38.249Z,5.90
2017-08-01T08:12:06.058Z,6.40
2017-08-01T08:14:33.694Z,5.80
2017-08-01T08:17:01.327Z,5.93
2017-08-01T08:19:29.414Z,6.17
2017-08-01T08:21:57.047Z,5.50
2017-08-01T08:24:24.736Z,6.03
2017-08-01T08:26:52.483Z,5.60
2017-08-01T08:29:20.127Z,5.83
2017-08-01T08:31:47.875Z,5.80
2017-08-01T08:34:15.641Z,5.80
2017-08-01T08:36:43.368Z,5.20
2017-08-01T08:39:11.015Z,5.80
2017-08-01T08:41:38.698Z,5.37
2017-08-01T08:44:06.729Z,5.47
2017-08-01T08:46:34.355Z,4.60
2017-08-01T08:49:02.031Z,5.00
2017-08-01T08:51:29.662Z,5.23
2017-08-01T08:53:57.396Z,4.60
2017-08-01T08:56:25.077Z,5.10
2017-08-01T08:58:53.198Z,5.10
2017-08-01T09:01:20.830Z,5.23
2017-08-01T09:03:48.589Z,5.50
2017-08-01T09:06:16.233Z,4.83
2017-08-01T09:08:43.879Z,4.90
2017-08-01T09:11:11.581Z,5.33
2017-08-01T09:13:39.221Z,5.67
2017-08-01T09:16:06.915Z,5.27
2017-08-01T09:18:34.614Z,4.87
2017-08-01T09:21:02.255Z,5.33
2017-08-01T09:23:29.955Z,4.83
2017-08-01T09:25:57.721Z,5.20
2017-08-01T09:28:25.449Z,5.03
2017-08-01T09:30:53.094Z,6.27
2017-08-01T09:33:21.073Z,5.50
2017-08-01T09:35:49.367Z,4.60
2017-08-01T09:38:17.061Z,5.90
2017-08-01T09:40:44.758Z,5.30
2017-08-01T09:43:12.443Z,5.20
2017-08-01T09:45:40.068Z,5.20
2017-08-01T09:48:07.765Z,4.90
2017-08-01T09:50:35.792Z,5.80
2017-08-01T09:53:03.431Z,5.60
2017-08-01T09:55:31.109Z,6.07
2017-08-01T09:57:59.143Z,5.23
2017-08-01T10:00:26.881Z,5.40
2017-08-01T10:02:54.573Z,4.80
2017-08-01T10:05:22.210Z,5.80
2017-08-01T10:07:50.242Z,6.00
2017-08-01T10:10:18.014Z,6.40
2017-08-01T10:12:45.644Z,5.23
2017-08-01T10:15:13.685Z,5.67
2017-08-01T10:17:41.377Z,6.03
2017-08-01T10:20:09.062Z,5.43
2017-08-01T10:22:36.690Z,5.00
2017-08-01T10:25:04.458Z,5.97
2017-08-01T10:27:32.204Z,5.90
2017-08-01T10:30:00.747Z,5.83
2017-08-01T10:32:28.517Z,5.53
2017-08-01T10:34:56.154Z,5.50
2017-08-01T10:37:23.790Z,5.60
2017-08-01T10:39:51.555Z,5.80
2017-08-01T10:42:19.189Z,6.43
2017-08-01T10:44:46.842Z,6.47
2017-08-01T10:47:14.529Z,6.50
2017-08-01T10:49:42.166Z,5.90
2017-08-01T10:52:09.879Z,6.50
2017-08-01T10:54:37.570Z,6.20
2017-08-01T10:57:05.210Z,5.77
2017-08-01T10:59:32.919Z,5.67
2017-08-01T11:02:00.611Z,5.87
2017-08-01T11:04:28.258Z,5.20
2017-08-01T11:06:55.895Z,5.73
2017-08-01T11:09:23.597Z,6.10
2017-08-01T11:11:51.245Z,6.10
2017-08-01T11:14:18.888Z,6.03
2017-08-01T11:16:46.562Z,5.00
2017-08-01T11:19:14.196Z,6.00
2017-08-01T11:21:41.835Z,5.13
2017-08-01T11:24:09.570Z,5.47
2017-08-01T11:26:37.217Z,6.27
2017-08-01T11:29:04.850Z,6.70
2017-08-01T11:31:32.533Z,6.60
2017-08-01T11:34:00.664Z,5.60
2017-08-01T11:36:28.302Z,6.57
2017-08-01T11:38:55.990Z,5.80
2017-08-01T11:41:23.701Z,5.07
2017-08-01T11:43:51.331Z,5.13
2017-08-01T11:46:19.013Z,6.30
2017-08-01T11:48:47.039Z,6.07
2017-08-01T11:51:14.681Z,5.97
2017-08-01T11:53:42.353Z,5.93
2017-08-01T11:56:09.991Z,5.93
2017-08-01T11:58:37.627Z,5.90
2017-08-01T12:01:05.318Z,6.30
2017-08-01T12:03:32.955Z,6.03
2017-08-01T12:06:01.072Z,5.60
2017-08-01T12:08:28.753Z,5.97
2017-08-01T12:10:56.874Z,5.27
2017-08-01T12:13:24.517Z,5.70
2017-08-01T12:15:52.213Z,5.13
2017-08-01T12:18:19.872Z,6.20
2017-08-01T12:20:47.502Z,5.17
2017-08-01T12:23:15.211Z,5.30
2017-08-01T12:25:42.847Z,5.90
2017-08-01T12:28:10.592Z,5.50
2017-08-01T12:30:38.338Z,6.90
2017-08-01T12:33:05.970Z,5.90
2017-08-01T12:35:33.606Z,6.03
2017-08-01T12:38:01.290Z,6.37
2017-08-01T12:40:28.927Z,6.10
2017-08-01T12:42:56.558Z,5.80
2017-08-01T12:45:24.263Z,5.90
2017-08-01T12:47:51.905Z,6.63
2017-08-01T12:50:19.538Z,5.80
2017-08-01T12:52:47.235Z,5.90
2017-08-01T12:55:14.866Z,6.07
2017-08-01T12:57:42.502Z,5.93
2017-08-01T13:00:10.214Z,5.47
2017-08-01T13:02:38.336Z,5.07
2017-08-01T13:05:05.973Z,6.70
2017-08-01T13:07:33.645Z,5.43
2017-08-01T13:10:01.282Z,6.27
2017-08-01T13:12:28.922Z,5.33
2017-08-01T13:14:56.618Z,6.10
2017-08-01T13:17:24.765Z,6.00
2017-08-01T13:19:52.422Z,5.70
2017-08-01T13:22:20.126Z,5.57
2017-08-01T13:24:47.759Z,5.73
2017-08-01T13:27:15.396Z,5.30
2017-08-01T13:29:43.074Z,5.20
2017-08-01T13:32:11.202Z,5.60
2017-08-01T13:34:38.834Z,5.33
2017-08-01T13:37:06.593Z,5.57
2017-08-01T13:39:34.236Z,5.20
2017-08-01T13:42:01.861Z,5.10
2017-08-01T13:44:29.543Z,5.10
2017-08-01T13:46:57.187Z,5.60
2017-08-01T13:49:24.838Z,5.60
2017-08-01T13:51:52.568Z,6.90
2017-08-01T13:54:20.215Z,5.93
2017-08-01T13:56:47.846Z,6.27
2017-08-01T13:59:15.535Z,5.50
2017-08-01T14:01:43.569Z,5.80
2017-08-01T14:04:11.198Z,5.07
2017-08-01T14:06:38.878Z,4.90
2017-08-01T14:09:06.918Z,5.00
2017-08-01T14:11:34.650Z,5.67
2017-08-01T14:14:02.330Z,6.20
2017-08-01T14:16:30.453Z,5.97
2017-08-01T14:18:58.099Z,5.60
2017-08-01T14:21:25.814Z,5.70
2017-08-01T14:23:53.450Z,6.80
2017-08-01T14:26:21.077Z,5.90
2017-08-01T14:28:48.786Z,5.40
2017-08-01T14:31:16.427Z,5.57
2017-08-01T14:33:44.049Z,4.80
2017-08-01T14:36:11.842Z,5.37
2017-08-01T14:38:39.873Z,5.50
2017-08-01T14:41:07.506Z,5.57
2017-08-01T14:43:35.206Z,6.07
2017-08-01T14:46:02.842Z,5.73
2017-08-01T14:48:30.871Z,5.90
2017-08-01T14:50:58.637Z,5.33
2017-08-01T14:53:26.672Z,5.20
2017-08-01T14:55:54.307Z,5.67
2017-08-01T14:58:21.999Z,5.67
2017-08-01T15:00:49.647Z,5.80
2017-08-01T15:03:17.282Z,5.53
2017-08-01T15:05:44.966Z,5.73
2017-08-01T15:08:12.607Z,5.40
2017-08-01T15:10:40.243Z,5.37
2017-08-01T15:13:07.930Z,5.80
2017-08-01T15:15:35.565Z,5.73
2017-08-01T15:18:03.316Z,7.57
2017-08-01T15:20:31.010Z,5.50
2017-08-01T15:22:58.707Z,5.47
2017-08-01T15:25:26.342Z,5.70
2017-08-01T15:27:54.019Z,5.37
2017-08-01T15:30:21.658Z,7.00
2017-08-01T15:32:49.294Z,5.83
2017-08-01T15:35:16.984Z,4.87
2017-08-01T15:37:44.651Z,6.40
2017-08-01T15:40:12.291Z,5.70
2017-08-01T15:42:40.006Z,6.73
2017-08-01T15:45:07.714Z,6.23
2017-08-01T15:47:35.463Z,5.80
2017-08-01T15:50:03.187Z,5.40
2017-08-01T15:55:04.953Z,5.20
2017-08-01T15:57:32.596Z,6.00
2017-08-01T16:00:00.240Z,4.77
2017-08-01T16:02:27.914Z,5.03
2017-08-01T16:04:56.050Z,6.20
2017-08-01T16:07:23.683Z,6.77
2017-08-01T16:09:51.371Z,5.47
2017-08-01T16:12:19.010Z,5.70
2017-08-01T16:14:46.639Z,5.13
2017-08-01T16:17:14.369Z,5.57
2017-08-01T16:19:42.050Z,6.73
2017-08-01T16:22:09.682Z,5.50
2017-08-01T16:24:37.814Z,5.63
2017-08-01T16:27:05.445Z,6.23
2017-08-01T16:29:33.079Z,6.40
2017-08-01T16:32:00.853Z,6.53
2017-08-01T16:34:28.498Z,5.87
2017-08-01T16:36:56.147Z,6.20
2017-08-01T16:39:23.858Z,5.17
2017-08-01T16:41:51.536Z,5.97
2017-08-01T16:44:19.179Z,6.00
2017-08-01T16:46:46.874Z,4.83
2017-08-01T16:49:14.503Z,6.80
2017-08-01T16:51:42.625Z,5.60
2017-08-01T16:54:10.302Z,5.70
2017-08-01T16:56:38.334Z,5.63
2017-08-01T16:59:05.968Z,6.60
2017-08-01T17:01:33.719Z,6.40
2017-08-01T17:04:01.370Z,7.00
2017-08-01T17:06:29.111Z,6.73
2017-08-01T17:08:56.858Z,5.83
2017-08-01T17:11:24.502Z,6.10
2017-08-01T17:13:52.134Z,6.57
2017-08-01T17:16:19.817Z,6.10
2017-08-01T17:18:47.854Z,7.70
2017-08-01T17:21:15.592Z,8.20
2017-08-01T17:23:43.443Z,7.87
2017-08-01T17:26:11.087Z,7.80
2017-08-01T17:28:38.733Z,9.37
2017-08-01T17:31:06.426Z,8.50
2017-08-01T17:33:34.062Z,7.40
2017-08-01T17:36:01.772Z,7.53
2017-08-01T17:38:29.471Z,8.10
2017-08-01T17:40:57.110Z,7.37
2017-08-01T17:43:24.809Z,6.03
2017-08-01T17:45:52.554Z,7.33
2017-08-01T17:48:20.302Z,8.13
2017-08-01T17:50:47.933Z,7.10
2017-08-01T17:53:15.630Z,7.77
2017-08-01T17:55:43.339Z,8.27
2017-08-01T17:58:10.988Z,9.00
2017-08-01T18:00:38.833Z,8.80
2017-08-01T18:03:06.478Z,8.93
2017-08-01T18:05:34.121Z,8.57
2017-08-01T18:08:01.814Z,10.97
2017-08-01T18:10:29.467Z,10.23
2017-08-01T18:12:57.113Z,8.30
2017-08-01T18:15:24.912Z,9.20
2017-08-01T18:17:52.558Z,8.77
2017-08-01T18:20:20.206Z,10.50
2017-08-01T18:22:47.918Z,8.87
2017-08-01T18:25:15.564Z,10.30
2017-08-01T18:27:43.205Z,8.83
2017-08-01T18:30:10.982Z,9.67
2017-08-01T18:32:38.649Z,10.30
2017-08-01T18:35:06.289Z,10.60
2017-08-01T18:37:34.123Z,8.97
2017-08-01T18:40:01.887Z,8.57
2017-08-01T18:42:29.526Z,7.90
2017-08-01T18:44:57.254Z,6.80
2017-08-01T18:47:25.013Z,6.70
2017-08-01T18:49:52.667Z,8.30
2017-08-01T18:52:20.400Z,8.17
2017-08-01T18:54:48.056Z,8.50
2017-08-01T18:57:15.796Z,9.70
2017-08-01T18:59:43.509Z,9.73
2017-08-01T19:02:11.595Z,9.10
2017-08-01T19:04:39.240Z,9.20
2017-08-01T19:07:06.987Z,8.13
2017-08-01T19:09:34.644Z,7.47
2017-08-01T19:12:02.292Z,8.20
2017-08-01T19:14:30.025Z,8.10
2017-08-01T19:16:59.234Z,10.03
2017-08-01T19:19:27.362Z,10.10
2017-08-01T19:21:55.160Z,9.90
2017-08-01T19:24:22.827Z,10.80
2017-08-01T19:26:51.090Z,9.40
2017-08-01T19:29:18.862Z,8.70
2017-08-01T19:31:46.578Z,7.40
2017-08-01T19:34:14.226Z,8.37
2017-08-01T19:36:41.926Z,8.60
2017-08-01T19:39:10.056Z,9.60
2017-08-01T19:41:37.703Z,7.53
2017-08-01T19:44:05.386Z,7.37
2017-08-01T19:46:33.424Z,8.10
2017-08-01T19:49:01.467Z,9.10
2017-08-01T19:51:29.146Z,7.73
2017-08-01T19:53:56.848Z,7.37
2017-08-01T19:56:25.109Z,7.27
2017-08-01T19:58:52.790Z,7.60
2017-08-01T20:01:20.850Z,6.30
2017-08-01T20:03:48.556Z,7.13
2017-08-01T20:06:16.505Z,6.60
2017-08-01T20:08:44.142Z,5.23
2017-08-01T20:11:11.827Z,5.80
2017-08-01T20:13:39.910Z,6.80
2017-08-01T20:16:07.596Z,5.93
2017-08-01T20:18:35.345Z,5.80
2017-08-01T20:21:03.102Z,5.73
2017-08-01T20:23:30.840Z,6.40
2017-08-01T20:25:58.587Z,5.30
2017-08-01T20:28:26.437Z,5.10
2017-08-01T20:30:54.183Z,5.30
2017-08-01T20:33:21.828Z,5.10
2017-08-01T20:35:49.576Z,5.10
2017-08-01T20:38:17.219Z,4.60
2017-08-01T20:40:44.845Z,5.03
2017-08-01T20:43:12.612Z,4.93
2017-08-01T20:45:40.242Z,5.83
2017-08-01T20:48:07.890Z,4.03
2017-08-01T20:50:35.649Z,4.47
2017-08-01T20:53:03.502Z,4.50
2017-08-01T20:55:31.145Z,4.90
2017-08-01T20:57:58.837Z,5.30
2017-08-01T21:00:26.471Z,4.80
2017-08-01T21:02:54.152Z,4.93
2017-08-01T21:05:21.929Z,4.40
2017-08-01T21:07:49.551Z,4.13
2017-08-01T21:10:17.219Z,4.77
2017-08-01T21:12:44.966Z,4.20
2017-08-01T21:15:12.607Z,4.10
2017-08-01T21:17:40.242Z,4.40
2017-08-01T21:20:07.922Z,3.67
2017-08-01T21:22:35.647Z,3.23
2017-08-01T21:25:03.279Z,4.00
2017-08-01T21:27:30.969Z,3.50
2017-08-01T21:29:59.096Z,4.37
2017-08-01T21:32:26.843Z,4.27
2017-08-01T21:34:54.534Z,4.80
2017-08-01T21:37:22.170Z,3.50
2017-08-01T21:39:50.196Z,4.37
2017-08-01T21:42:17.882Z,3.30
2017-08-01T21:44:45.585Z,3.93
2017-08-01T21:47:13.230Z,3.50
2017-08-01T21:49:40.969Z,3.80
2017-08-01T21:52:08.720Z,3.67
2017-08-01T21:54:36.464Z,4.20
2017-08-01T21:57:04.155Z,3.63
2017-08-01T21:59:31.787Z,4.03
2017-08-01T22:01:59.913Z,4.23
2017-08-01T22:04:27.660Z,3.93
2017-08-01T22:06:55.407Z,4.03
2017-08-01T22:09:23.043Z,4.70
2017-08-01T22:11:50.799Z,3.63
2017-08-01T22:14:18.430Z,4.77
2017-08-01T22:16:46.089Z,4.47
2017-08-01T22:19:13.799Z,4.63
2017-08-01T22:21:41.435Z,5.40
2017-08-01T22:24:09.124Z,4.73
2017-08-01T22:26:36.872Z,5.07
2017-08-01T22:29:04.510Z,5.10
2017-08-01T22:31:32.147Z,5.33
2017-08-01T22:33:59.838Z,5.33
2017-08-01T22:36:27.966Z,4.87
2017-08-01T22:38:55.590Z,6.00
2017-08-01T22:41:23.357Z,5.50
2017-08-01T22:43:50.986Z,5.40
2017-08-01T22:46:18.617Z,4.90
2017-08-01T22:48:46.394Z,5.43
2017-08-01T22:51:14.038Z,4.67
2017-08-01T22:53:41.661Z,4.60
2017-08-01T22:56:09.353Z,5.17
2017-08-01T22:58:37.485Z,6.90
2017-08-01T23:01:05.106Z,5.80
2017-08-01T23:03:32.879Z,5.70
2017-08-01T23:06:00.509Z,7.00
2017-08-01T23:08:28.142Z,5.70
2017-08-01T23:10:55.918Z,6.70
2017-08-01T23:13:23.559Z,6.90
2017-08-01T23:15:51.308Z,7.13
2017-08-01T23:18:19.006Z,6.57
2017-08-01T23:20:47.007Z,7.67
2017-08-01T23:23:14.753Z,7.00
2017-08-01T23:25:42.438Z,7.63
2017-08-01T23:28:10.145Z,8.13
2017-08-01T23:30:37.791Z,7.20
2017-08-01T23:33:05.497Z,8.30
2017-08-01T23:35:33.139Z,8.17
2017-08-01T23:38:00.830Z,7.70
2017-08-01T23:40:28.505Z,7.27
2017-08-01T23:42:56.541Z,9.20
2017-08-01T23:45:24.275Z,6.70
2017-08-01T23:47:51.978Z,8.30
2017-08-01T23:50:19.668Z,7.87
2017-08-01T23:52:47.311Z,7.50
2017-08-01T23:55:15.013Z,7.93
2017-08-01T23:57:42.704Z,8.30
